sensor_id;sensor_type;location;lat;lon;timestamp;temperature;humidity
25582;DHT22;13462;50.764;4.332;2023-05-10T00:02:22;12.90;99.90
25582;DHT22;13462;50.764;4.332;2023-05-10T00:04:48;12.80;99.90
25582;DHT22;13462;50.764;4.332;2023-05-10T00:07:13;13.00;99.90
25582;DHT22;13462;50.764;4.332;2023-05-10T00:09:39;13.00;99.90
25582;DHT22;13462;50.764;4.332;2023-05-10T00:12:05;13.00;99.90
25582;DHT22;13462;50.764;4.332;2023-05-10T00:14:30;12.90;99.90
25582;DHT22;13462;50.764;4.332;2023-05-10T00:16:56;12.70;99.90
25582;DHT22;13462;50.764;4.332;2023-05-10T00:19:22;12.70;99.90
25582;DHT22;13462;50.764;4.332;2023-05-10T00:21:47;12.70;99.90
25582;DHT22;13462;50.764;4.332;2023-05-10T00:24:13;12.80;99.90
25582;DHT22;13462;50.764;4.332;2023-05-10T00:26:38;12.90;99.90
25582;DHT22;13462;50.764;4.332;2023-05-10T00:29:04;12.90;99.90
25582;DHT22;13462;50.764;4.332;2023-05-10T00:31:29;12.90;99.90
25582;DHT22;13462;50.764;4.332;2023-05-10T00:33:55;12.90;99.90
25582;DHT22;13462;50.764;4.332;2023-05-10T00:36:20;12.90;99.90
25582;DHT22;13462;50.764;4.332;2023-05-10T00:38:46;12.90;99.90
25582;DHT22;13462;50.764;4.332;2023-05-10T00:41:11;13.00;99.90
25582;DHT22;13462;50.764;4.332;2023-05-10T00:43:37;13.00;99.90
25582;DHT22;13462;50.764;4.332;2023-05-10T00:46:03;13.00;99.90
25582;DHT22;13462;50.764;4.332;2023-05-10T00:48:29;13.00;99.90
25582;DHT22;13462;50.764;4.332;2023-05-10T00:50:54;13.00;99.90
25582;DHT22;13462;50.764;4.332;2023-05-10T00:53:21;13.00;99.90
25582;DHT22;13462;50.764;4.332;2023-05-10T00:55:46;12.90;99.90
25582;DHT22;13462;50.764;4.332;2023-05-10T00:58:12;13.00;99.90
25582;DHT22;13462;50.764;4.332;2023-05-10T01:00:38;13.00;99.90
25582;DHT22;13462;50.764;4.332;2023-05-10T01:03:06;13.00;99.90
25582;DHT22;13462;50.764;4.332;2023-05-10T01:05:31;12.90;99.90
25582;DHT22;13462;50.764;4.332;2023-05-10T01:07:57;13.00;99.90
25582;DHT22;13462;50.764;4.332;2023-05-10T01:10:22;13.00;99.90
25582;DHT22;13462;50.764;4.332;2023-05-10T01:12:48;13.00;99.90
25582;DHT22;13462;50.764;4.332;2023-05-10T01:15:13;13.00;99.90
25582;DHT22;13462;50.764;4.332;2023-05-10T01:17:40;13.00;99.90
25582;DHT22;13462;50.764;4.332;2023-05-10T01:20:07;13.10;99.90
25582;DHT22;13462;50.764;4.332;2023-05-10T01:33:26;13.10;99.90
25582;DHT22;13462;50.764;4.332;2023-05-10T01:35:57;13.10;99.90
25582;DHT22;13462;50.764;4.332;2023-05-10T01:46:36;13.20;99.90
25582;DHT22;13462;50.764;4.332;2023-05-10T01:49:03;13.20;99.90
25582;DHT22;13462;50.764;4.332;2023-05-10T01:51:38;13.20;99.90
25582;DHT22;13462;50.764;4.332;2023-05-10T01:54:04;13.20;99.90
25582;DHT22;13462;50.764;4.332;2023-05-10T01:56:31;13.20;99.90
25582;DHT22;13462;50.764;4.332;2023-05-10T01:58:58;13.20;99.90
25582;DHT22;13462;50.764;4.332;2023-05-10T02:01:25;13.20;99.90
25582;DHT22;13462;50.764;4.332;2023-05-10T02:03:51;13.10;99.90
25582;DHT22;13462;50.764;4.332;2023-05-10T02:06:18;13.10;99.90
25582;DHT22;13462;50.764;4.332;2023-05-10T02:08:43;13.00;99.90
25582;DHT22;13462;50.764;4.332;2023-05-10T02:11:11;13.00;99.90
25582;DHT22;13462;50.764;4.332;2023-05-10T02:13:37;13.00;99.90
25582;DHT22;13462;50.764;4.332;2023-05-10T02:16:04;12.90;99.90
25582;DHT22;13462;50.764;4.332;2023-05-10T02:18:30;13.00;99.90
25582;DHT22;13462;50.764;4.332;2023-05-10T02:20:57;13.00;99.90
25582;DHT22;13462;50.764;4.332;2023-05-10T02:23:23;13.00;99.90
25582;DHT22;13462;50.764;4.332;2023-05-10T02:25:48;13.00;99.90
25582;DHT22;13462;50.764;4.332;2023-05-10T02:28:15;13.10;99.90
25582;DHT22;13462;50.764;4.332;2023-05-10T02:30:41;13.10;99.90
25582;DHT22;13462;50.764;4.332;2023-05-10T02:33:06;13.00;99.90
25582;DHT22;13462;50.764;4.332;2023-05-10T02:35:32;13.10;99.90
25582;DHT22;13462;50.764;4.332;2023-05-10T02:37:59;13.10;99.90
25582;DHT22;13462;50.764;4.332;2023-05-10T02:40:25;13.10;99.90
25582;DHT22;13462;50.764;4.332;2023-05-10T02:42:52;13.00;99.90
25582;DHT22;13462;50.764;4.332;2023-05-10T02:45:20;13.00;99.90
25582;DHT22;13462;50.764;4.332;2023-05-10T02:47:47;13.10;99.90
25582;DHT22;13462;50.764;4.332;2023-05-10T02:50:13;13.10;99.90
25582;DHT22;13462;50.764;4.332;2023-05-10T02:52:49;13.20;99.90
25582;DHT22;13462;50.764;4.332;2023-05-10T02:55:17;13.30;99.90
25582;DHT22;13462;50.764;4.332;2023-05-10T02:57:51;13.10;99.90
25582;DHT22;13462;50.764;4.332;2023-05-10T03:00:17;13.10;99.90
25582;DHT22;13462;50.764;4.332;2023-05-10T03:02:43;13.00;99.90
25582;DHT22;13462;50.764;4.332;2023-05-10T03:05:08;13.00;99.90
25582;DHT22;13462;50.764;4.332;2023-05-10T03:07:34;13.00;99.90
25582;DHT22;13462;50.764;4.332;2023-05-10T03:09:59;13.00;99.90
25582;DHT22;13462;50.764;4.332;2023-05-10T03:18:56;13.00;99.90
25582;DHT22;13462;50.764;4.332;2023-05-10T03:20:57;12.80;99.90
25582;DHT22;13462;50.764;4.332;2023-05-10T03:23:26;12.90;99.90
25582;DHT22;13462;50.764;4.332;2023-05-10T03:25:52;12.90;99.90
25582;DHT22;13462;50.764;4.332;2023-05-10T03:28:18;12.90;99.90
25582;DHT22;13462;50.764;4.332;2023-05-10T03:30:44;12.90;99.90
25582;DHT22;13462;50.764;4.332;2023-05-10T03:33:10;12.90;99.90
25582;DHT22;13462;50.764;4.332;2023-05-10T03:35:36;13.00;99.90
25582;DHT22;13462;50.764;4.332;2023-05-10T03:38:01;13.00;99.90
25582;DHT22;13462;50.764;4.332;2023-05-10T03:40:27;12.80;99.90
25582;DHT22;13462;50.764;4.332;2023-05-10T03:42:54;12.80;99.90
25582;DHT22;13462;50.764;4.332;2023-05-10T03:45:20;12.80;99.90
25582;DHT22;13462;50.764;4.332;2023-05-10T03:47:45;12.80;99.90
25582;DHT22;13462;50.764;4.332;2023-05-10T03:50:11;12.70;99.90
25582;DHT22;13462;50.764;4.332;2023-05-10T03:52:37;12.70;99.90
25582;DHT22;13462;50.764;4.332;2023-05-10T03:55:04;12.80;99.90
25582;DHT22;13462;50.764;4.332;2023-05-10T03:57:30;12.90;99.90
25582;DHT22;13462;50.764;4.332;2023-05-10T03:59:55;12.90;99.90
25582;DHT22;13462;50.764;4.332;2023-05-10T04:02:21;12.70;99.90
25582;DHT22;13462;50.764;4.332;2023-05-10T04:04:46;12.80;99.90
25582;DHT22;13462;50.764;4.332;2023-05-10T04:07:13;12.70;99.90
25582;DHT22;13462;50.764;4.332;2023-05-10T04:09:39;12.70;99.90
25582;DHT22;13462;50.764;4.332;2023-05-10T04:12:05;12.70;99.90
25582;DHT22;13462;50.764;4.332;2023-05-10T04:14:31;12.70;99.90
25582;DHT22;13462;50.764;4.332;2023-05-10T04:16:56;12.80;99.90
25582;DHT22;13462;50.764;4.332;2023-05-10T04:19:22;12.80;99.90
25582;DHT22;13462;50.764;4.332;2023-05-10T04:21:47;12.70;99.90
25582;DHT22;13462;50.764;4.332;2023-05-10T04:24:13;12.70;99.90
25582;DHT22;13462;50.764;4.332;2023-05-10T04:26:38;12.70;99.90
25582;DHT22;13462;50.764;4.332;2023-05-10T04:29:04;12.60;99.90
25582;DHT22;13462;50.764;4.332;2023-05-10T04:31:29;12.70;99.90
25582;DHT22;13462;50.764;4.332;2023-05-10T04:33:55;12.60;99.90
25582;DHT22;13462;50.764;4.332;2023-05-10T04:36:20;12.70;99.90
25582;DHT22;13462;50.764;4.332;2023-05-10T04:38:46;12.60;99.90
25582;DHT22;13462;50.764;4.332;2023-05-10T04:41:11;12.70;99.90
25582;DHT22;13462;50.764;4.332;2023-05-10T04:43:37;12.70;99.90
25582;DHT22;13462;50.764;4.332;2023-05-10T04:46:03;12.70;99.90
25582;DHT22;13462;50.764;4.332;2023-05-10T04:48:29;12.70;99.90
25582;DHT22;13462;50.764;4.332;2023-05-10T04:50:54;12.70;99.90
25582;DHT22;13462;50.764;4.332;2023-05-10T04:53:20;12.60;99.90
25582;DHT22;13462;50.764;4.332;2023-05-10T04:55:46;12.50;99.90
25582;DHT22;13462;50.764;4.332;2023-05-10T04:58:12;12.40;99.90
25582;DHT22;13462;50.764;4.332;2023-05-10T05:00:37;12.50;99.90
25582;DHT22;13462;50.764;4.332;2023-05-10T05:03:03;12.50;99.90
25582;DHT22;13462;50.764;4.332;2023-05-10T05:05:28;12.50;99.90
25582;DHT22;13462;50.764;4.332;2023-05-10T05:07:54;12.50;99.90
25582;DHT22;13462;50.764;4.332;2023-05-10T05:10:19;12.30;99.90
25582;DHT22;13462;50.764;4.332;2023-05-10T05:12:45;12.30;99.90
25582;DHT22;13462;50.764;4.332;2023-05-10T05:15:10;12.30;99.90
25582;DHT22;13462;50.764;4.332;2023-05-10T05:17:36;12.30;99.90
25582;DHT22;13462;50.764;4.332;2023-05-10T05:20:02;12.20;99.90
25582;DHT22;13462;50.764;4.332;2023-05-10T05:22:28;12.20;99.90
25582;DHT22;13462;50.764;4.332;2023-05-10T05:24:54;12.20;99.90
25582;DHT22;13462;50.764;4.332;2023-05-10T05:27:19;12.20;99.90
25582;DHT22;13462;50.764;4.332;2023-05-10T05:29:47;12.30;99.90
25582;DHT22;13462;50.764;4.332;2023-05-10T05:32:13;12.30;99.90
25582;DHT22;13462;50.764;4.332;2023-05-10T05:34:38;12.30;99.90
25582;DHT22;13462;50.764;4.332;2023-05-10T05:37:04;12.30;99.90
25582;DHT22;13462;50.764;4.332;2023-05-10T05:39:29;12.40;99.90
25582;DHT22;13462;50.764;4.332;2023-05-10T05:41:55;12.40;99.90
25582;DHT22;13462;50.764;4.332;2023-05-10T05:44:20;12.40;99.90
25582;DHT22;13462;50.764;4.332;2023-05-10T05:46:46;12.30;99.90
25582;DHT22;13462;50.764;4.332;2023-05-10T05:49:11;12.30;99.90
25582;DHT22;13462;50.764;4.332;2023-05-10T05:51:37;12.40;99.90
25582;DHT22;13462;50.764;4.332;2023-05-10T05:54:03;12.30;99.90
25582;DHT22;13462;50.764;4.332;2023-05-10T05:56:29;12.20;99.90
25582;DHT22;13462;50.764;4.332;2023-05-10T05:58:55;12.20;99.90
25582;DHT22;13462;50.764;4.332;2023-05-10T06:01:20;12.20;99.90
25582;DHT22;13462;50.764;4.332;2023-05-10T06:03:46;12.00;99.90
25582;DHT22;13462;50.764;4.332;2023-05-10T06:06:11;12.00;99.90
25582;DHT22;13462;50.764;4.332;2023-05-10T06:08:37;12.00;99.90
25582;DHT22;13462;50.764;4.332;2023-05-10T06:11:03;12.00;99.90
25582;DHT22;13462;50.764;4.332;2023-05-10T06:13:29;12.00;99.90
25582;DHT22;13462;50.764;4.332;2023-05-10T06:16:00;12.10;99.90
25582;DHT22;13462;50.764;4.332;2023-05-10T06:18:26;12.10;99.90
25582;DHT22;13462;50.764;4.332;2023-05-10T06:20:52;12.10;99.90
25582;DHT22;13462;50.764;4.332;2023-05-10T06:23:17;12.10;99.90
25582;DHT22;13462;50.764;4.332;2023-05-10T06:25:43;12.20;99.90
25582;DHT22;13462;50.764;4.332;2023-05-10T06:28:08;12.10;99.90
25582;DHT22;13462;50.764;4.332;2023-05-10T06:30:35;12.00;99.90
25582;DHT22;13462;50.764;4.332;2023-05-10T06:33:01;12.00;99.90
25582;DHT22;13462;50.764;4.332;2023-05-10T06:35:27;11.90;99.90
25582;DHT22;13462;50.764;4.332;2023-05-10T06:37:53;11.90;99.90
25582;DHT22;13462;50.764;4.332;2023-05-10T06:40:18;11.90;99.90
25582;DHT22;13462;50.764;4.332;2023-05-10T06:42:44;12.00;99.90
25582;DHT22;13462;50.764;4.332;2023-05-10T06:45:11;12.00;99.90
25582;DHT22;13462;50.764;4.332;2023-05-10T06:47:36;12.00;99.90
25582;DHT22;13462;50.764;4.332;2023-05-10T06:50:02;12.00;99.90
25582;DHT22;13462;50.764;4.332;2023-05-10T06:52:27;12.00;99.90
25582;DHT22;13462;50.764;4.332;2023-05-10T06:54:53;11.90;99.90
25582;DHT22;13462;50.764;4.332;2023-05-10T06:57:19;11.90;99.90
25582;DHT22;13462;50.764;4.332;2023-05-10T06:59:44;11.80;99.90
25582;DHT22;13462;50.764;4.332;2023-05-10T07:02:10;11.90;99.90
25582;DHT22;13462;50.764;4.332;2023-05-10T07:04:35;12.00;99.90
25582;DHT22;13462;50.764;4.332;2023-05-10T07:07:01;12.20;99.90
25582;DHT22;13462;50.764;4.332;2023-05-10T07:09:26;12.30;99.90
25582;DHT22;13462;50.764;4.332;2023-05-10T07:11:52;12.40;99.90
25582;DHT22;13462;50.764;4.332;2023-05-10T07:14:17;12.50;99.90
25582;DHT22;13462;50.764;4.332;2023-05-10T07:16:43;12.50;99.90
25582;DHT22;13462;50.764;4.332;2023-05-10T07:19:09;12.50;99.90
25582;DHT22;13462;50.764;4.332;2023-05-10T07:21:35;12.50;99.90
25582;DHT22;13462;50.764;4.332;2023-05-10T07:24:01;12.50;99.90
25582;DHT22;13462;50.764;4.332;2023-05-10T07:26:27;12.50;99.90
25582;DHT22;13462;50.764;4.332;2023-05-10T07:28:52;12.50;99.90
25582;DHT22;13462;50.764;4.332;2023-05-10T07:31:18;12.70;99.90
25582;DHT22;13462;50.764;4.332;2023-05-10T07:33:43;12.70;99.90
25582;DHT22;13462;50.764;4.332;2023-05-10T07:36:09;12.80;99.90
25582;DHT22;13462;50.764;4.332;2023-05-10T07:38:34;12.80;99.90
25582;DHT22;13462;50.764;4.332;2023-05-10T07:41:00;12.80;99.90
25582;DHT22;13462;50.764;4.332;2023-05-10T07:43:25;12.80;99.90
25582;DHT22;13462;50.764;4.332;2023-05-10T07:45:51;12.70;99.90
25582;DHT22;13462;50.764;4.332;2023-05-10T07:48:16;12.50;99.90
25582;DHT22;13462;50.764;4.332;2023-05-10T07:50:42;12.60;99.90
25582;DHT22;13462;50.764;4.332;2023-05-10T07:53:07;12.60;99.90
25582;DHT22;13462;50.764;4.332;2023-05-10T07:55:33;12.70;99.90
25582;DHT22;13462;50.764;4.332;2023-05-10T07:57:58;12.60;99.90
25582;DHT22;13462;50.764;4.332;2023-05-10T08:00:26;12.60;99.90
25582;DHT22;13462;50.764;4.332;2023-05-10T08:02:52;12.50;99.90
25582;DHT22;13462;50.764;4.332;2023-05-10T08:05:18;12.70;99.90
25582;DHT22;13462;50.764;4.332;2023-05-10T08:07:43;12.90;99.90
25582;DHT22;13462;50.764;4.332;2023-05-10T08:10:09;13.10;99.90
25582;DHT22;13462;50.764;4.332;2023-05-10T08:12:36;13.20;99.90
25582;DHT22;13462;50.764;4.332;2023-05-10T08:15:02;13.20;99.90
25582;DHT22;13462;50.764;4.332;2023-05-10T08:17:27;13.20;99.90
25582;DHT22;13462;50.764;4.332;2023-05-10T08:19:53;13.30;99.90
25582;DHT22;13462;50.764;4.332;2023-05-10T08:22:18;13.40;99.90
25582;DHT22;13462;50.764;4.332;2023-05-10T08:24:43;13.30;99.90
25582;DHT22;13462;50.764;4.332;2023-05-10T08:27:09;13.40;99.90
25582;DHT22;13462;50.764;4.332;2023-05-10T08:29:34;13.50;99.90
25582;DHT22;13462;50.764;4.332;2023-05-10T08:32:00;13.40;99.90
25582;DHT22;13462;50.764;4.332;2023-05-10T08:34:26;13.40;99.90
25582;DHT22;13462;50.764;4.332;2023-05-10T08:36:52;13.40;99.90
25582;DHT22;13462;50.764;4.332;2023-05-10T08:39:17;13.40;99.90
25582;DHT22;13462;50.764;4.332;2023-05-10T08:41:44;13.50;99.90
25582;DHT22;13462;50.764;4.332;2023-05-10T08:44:09;13.40;99.90
25582;DHT22;13462;50.764;4.332;2023-05-10T08:46:35;13.40;99.90
25582;DHT22;13462;50.764;4.332;2023-05-10T08:49:03;13.40;99.90
25582;DHT22;13462;50.764;4.332;2023-05-10T08:51:30;13.40;99.90
25582;DHT22;13462;50.764;4.332;2023-05-10T08:53:58;13.30;99.90
25582;DHT22;13462;50.764;4.332;2023-05-10T08:56:24;13.20;99.90
25582;DHT22;13462;50.764;4.332;2023-05-10T08:58:50;13.20;99.90
25582;DHT22;13462;50.764;4.332;2023-05-10T09:01:16;13.30;99.90
25582;DHT22;13462;50.764;4.332;2023-05-10T09:03:41;13.30;99.90
25582;DHT22;13462;50.764;4.332;2023-05-10T09:06:07;13.30;99.90
25582;DHT22;13462;50.764;4.332;2023-05-10T09:08:33;13.20;99.90
25582;DHT22;13462;50.764;4.332;2023-05-10T09:10:59;13.30;99.90
25582;DHT22;13462;50.764;4.332;2023-05-10T09:13:26;13.20;99.90
25582;DHT22;13462;50.764;4.332;2023-05-10T09:15:51;13.10;99.90
25582;DHT22;13462;50.764;4.332;2023-05-10T09:18:18;13.00;99.90
25582;DHT22;13462;50.764;4.332;2023-05-10T09:20:43;13.10;99.90
25582;DHT22;13462;50.764;4.332;2023-05-10T09:23:09;13.10;99.90
25582;DHT22;13462;50.764;4.332;2023-05-10T09:25:34;13.20;99.90
25582;DHT22;13462;50.764;4.332;2023-05-10T09:28:00;13.20;99.90
25582;DHT22;13462;50.764;4.332;2023-05-10T09:30:26;13.20;99.90
25582;DHT22;13462;50.764;4.332;2023-05-10T09:32:52;13.20;99.90
25582;DHT22;13462;50.764;4.332;2023-05-10T09:35:19;13.00;99.90
25582;DHT22;13462;50.764;4.332;2023-05-10T09:37:46;13.00;99.90
25582;DHT22;13462;50.764;4.332;2023-05-10T09:40:23;13.00;99.90
25582;DHT22;13462;50.764;4.332;2023-05-10T09:42:53;13.00;99.90
25582;DHT22;13462;50.764;4.332;2023-05-10T09:45:19;12.90;99.90
25582;DHT22;13462;50.764;4.332;2023-05-10T09:47:45;12.90;99.90
25582;DHT22;13462;50.764;4.332;2023-05-10T09:50:11;12.90;99.90
25582;DHT22;13462;50.764;4.332;2023-05-10T09:55:14;12.90;99.90
25582;DHT22;13462;50.764;4.332;2023-05-10T09:57:40;12.90;99.90
25582;DHT22;13462;50.764;4.332;2023-05-10T10:00:06;12.90;99.90
25582;DHT22;13462;50.764;4.332;2023-05-10T10:02:32;12.90;99.90
25582;DHT22;13462;50.764;4.332;2023-05-10T10:04:59;12.80;99.90
25582;DHT22;13462;50.764;4.332;2023-05-10T10:07:25;12.80;99.90
25582;DHT22;13462;50.764;4.332;2023-05-10T10:09:51;12.80;99.90
25582;DHT22;13462;50.764;4.332;2023-05-10T10:12:18;12.70;99.90
25582;DHT22;13462;50.764;4.332;2023-05-10T10:14:45;12.80;99.90
25582;DHT22;13462;50.764;4.332;2023-05-10T10:17:11;12.90;99.90
25582;DHT22;13462;50.764;4.332;2023-05-10T10:19:37;13.00;99.90
25582;DHT22;13462;50.764;4.332;2023-05-10T10:22:02;13.10;99.90
25582;DHT22;13462;50.764;4.332;2023-05-10T10:24:28;13.30;99.90
25582;DHT22;13462;50.764;4.332;2023-05-10T10:26:54;13.50;99.90
25582;DHT22;13462;50.764;4.332;2023-05-10T10:29:23;13.40;99.90
25582;DHT22;13462;50.764;4.332;2023-05-10T10:31:57;13.60;99.90
25582;DHT22;13462;50.764;4.332;2023-05-10T10:34:29;13.70;99.90
25582;DHT22;13462;50.764;4.332;2023-05-10T10:36:55;14.00;99.90
25582;DHT22;13462;50.764;4.332;2023-05-10T10:39:22;14.20;99.90
25582;DHT22;13462;50.764;4.332;2023-05-10T10:41:54;14.30;99.90
25582;DHT22;13462;50.764;4.332;2023-05-10T10:44:23;14.40;99.90
25582;DHT22;13462;50.764;4.332;2023-05-10T10:49:28;14.40;99.90
25582;DHT22;13462;50.764;4.332;2023-05-10T10:54:37;14.70;99.90
25582;DHT22;13462;50.764;4.332;2023-05-10T10:57:13;14.80;99.90
25582;DHT22;13462;50.764;4.332;2023-05-10T10:59:42;14.70;99.90
25582;DHT22;13462;50.764;4.332;2023-05-10T11:02:31;14.80;99.90
25582;DHT22;13462;50.764;4.332;2023-05-10T11:04:56;14.80;99.90
25582;DHT22;13462;50.764;4.332;2023-05-10T11:07:21;15.10;99.90
25582;DHT22;13462;50.764;4.332;2023-05-10T11:09:47;15.20;99.90
25582;DHT22;13462;50.764;4.332;2023-05-10T11:12:13;15.30;99.90
25582;DHT22;13462;50.764;4.332;2023-05-10T11:14:38;15.20;99.90
25582;DHT22;13462;50.764;4.332;2023-05-10T11:20:07;15.60;99.90
25582;DHT22;13462;50.764;4.332;2023-05-10T11:22:53;16.00;99.90
25582;DHT22;13462;50.764;4.332;2023-05-10T11:25:19;16.40;99.90
25582;DHT22;13462;50.764;4.332;2023-05-10T11:27:47;16.70;99.90
25582;DHT22;13462;50.764;4.332;2023-05-10T11:30:13;17.00;99.90
25582;DHT22;13462;50.764;4.332;2023-05-10T11:32:39;17.30;99.90
25582;DHT22;13462;50.764;4.332;2023-05-10T11:35:08;17.50;99.90
25582;DHT22;13462;50.764;4.332;2023-05-10T11:37:34;18.00;99.90
25582;DHT22;13462;50.764;4.332;2023-05-10T11:39:59;18.20;99.90
25582;DHT22;13462;50.764;4.332;2023-05-10T11:42:25;18.40;99.90
25582;DHT22;13462;50.764;4.332;2023-05-10T11:44:52;18.90;99.90
25582;DHT22;13462;50.764;4.332;2023-05-10T11:47:17;19.00;99.90
25582;DHT22;13462;50.764;4.332;2023-05-10T11:49:43;18.80;99.90
25582;DHT22;13462;50.764;4.332;2023-05-10T11:52:09;18.80;99.90
25582;DHT22;13462;50.764;4.332;2023-05-10T11:54:36;18.80;99.90
25582;DHT22;13462;50.764;4.332;2023-05-10T11:57:02;18.70;99.90
25582;DHT22;13462;50.764;4.332;2023-05-10T11:59:28;18.70;99.90
25582;DHT22;13462;50.764;4.332;2023-05-10T12:01:53;18.70;99.90
25582;DHT22;13462;50.764;4.332;2023-05-10T12:04:19;18.70;99.90
25582;DHT22;13462;50.764;4.332;2023-05-10T12:06:44;18.60;99.90
25582;DHT22;13462;50.764;4.332;2023-05-10T12:09:11;18.50;99.90
25582;DHT22;13462;50.764;4.332;2023-05-10T12:11:38;18.60;99.90
25582;DHT22;13462;50.764;4.332;2023-05-10T12:14:04;18.30;99.90
25582;DHT22;13462;50.764;4.332;2023-05-10T12:16:30;18.40;99.90
25582;DHT22;13462;50.764;4.332;2023-05-10T12:18:57;18.60;99.90
25582;DHT22;13462;50.764;4.332;2023-05-10T12:21:22;18.80;99.90
25582;DHT22;13462;50.764;4.332;2023-05-10T12:23:49;18.70;99.90
25582;DHT22;13462;50.764;4.332;2023-05-10T12:26:15;18.70;99.90
25582;DHT22;13462;50.764;4.332;2023-05-10T12:28:41;19.00;99.90
25582;DHT22;13462;50.764;4.332;2023-05-10T12:31:06;18.90;99.90
25582;DHT22;13462;50.764;4.332;2023-05-10T12:33:39;18.40;99.90
25582;DHT22;13462;50.764;4.332;2023-05-10T12:36:06;17.80;99.90
25582;DHT22;13462;50.764;4.332;2023-05-10T12:38:33;17.50;99.90
25582;DHT22;13462;50.764;4.332;2023-05-10T12:41:06;17.40;99.90
25582;DHT22;13462;50.764;4.332;2023-05-10T12:43:32;17.20;99.90
25582;DHT22;13462;50.764;4.332;2023-05-10T12:45:58;17.40;99.90
25582;DHT22;13462;50.764;4.332;2023-05-10T12:48:24;18.00;99.90
25582;DHT22;13462;50.764;4.332;2023-05-10T12:50:49;19.00;99.90
25582;DHT22;13462;50.764;4.332;2023-05-10T12:53:16;19.60;99.90
25582;DHT22;13462;50.764;4.332;2023-05-10T12:55:42;20.20;99.90
25582;DHT22;13462;50.764;4.332;2023-05-10T12:58:07;20.60;99.90
25582;DHT22;13462;50.764;4.332;2023-05-10T13:00:33;20.50;99.90
25582;DHT22;13462;50.764;4.332;2023-05-10T13:02:58;20.80;99.90
25582;DHT22;13462;50.764;4.332;2023-05-10T13:05:24;20.70;99.90
25582;DHT22;13462;50.764;4.332;2023-05-10T13:07:49;21.00;99.90
25582;DHT22;13462;50.764;4.332;2023-05-10T13:10:15;21.10;99.90
25582;DHT22;13462;50.764;4.332;2023-05-10T13:12:41;20.80;99.90
25582;DHT22;13462;50.764;4.332;2023-05-10T13:15:06;20.30;99.90
25582;DHT22;13462;50.764;4.332;2023-05-10T13:17:32;20.10;99.90
25582;DHT22;13462;50.764;4.332;2023-05-10T13:19:58;20.20;99.90
25582;DHT22;13462;50.764;4.332;2023-05-10T13:22:23;19.70;99.90
25582;DHT22;13462;50.764;4.332;2023-05-10T13:24:49;19.60;99.90
25582;DHT22;13462;50.764;4.332;2023-05-10T13:27:14;19.60;99.90
25582;DHT22;13462;50.764;4.332;2023-05-10T13:29:40;19.50;99.90
25582;DHT22;13462;50.764;4.332;2023-05-10T13:32:06;19.20;99.90
25582;DHT22;13462;50.764;4.332;2023-05-10T13:34:31;19.50;99.90
25582;DHT22;13462;50.764;4.332;2023-05-10T13:36:57;19.60;99.90
25582;DHT22;13462;50.764;4.332;2023-05-10T13:39:22;19.70;99.90
25582;DHT22;13462;50.764;4.332;2023-05-10T13:41:48;19.90;99.90
25582;DHT22;13462;50.764;4.332;2023-05-10T13:44:14;20.10;99.90
25582;DHT22;13462;50.764;4.332;2023-05-10T13:46:40;19.90;99.90
25582;DHT22;13462;50.764;4.332;2023-05-10T13:49:06;19.80;99.90
25582;DHT22;13462;50.764;4.332;2023-05-10T13:51:33;19.80;99.90
25582;DHT22;13462;50.764;4.332;2023-05-10T13:53:58;19.40;99.90
25582;DHT22;13462;50.764;4.332;2023-05-10T13:56:24;19.30;99.90
25582;DHT22;13462;50.764;4.332;2023-05-10T13:58:50;19.40;99.90
25582;DHT22;13462;50.764;4.332;2023-05-10T14:01:15;19.40;99.90
25582;DHT22;13462;50.764;4.332;2023-05-10T14:03:41;19.30;99.90
25582;DHT22;13462;50.764;4.332;2023-05-10T14:06:07;19.10;99.90
25582;DHT22;13462;50.764;4.332;2023-05-10T14:08:33;19.00;99.90
25582;DHT22;13462;50.764;4.332;2023-05-10T14:10:59;18.60;99.90
25582;DHT22;13462;50.764;4.332;2023-05-10T14:13:25;18.60;99.90
25582;DHT22;13462;50.764;4.332;2023-05-10T14:15:50;18.80;99.90
25582;DHT22;13462;50.764;4.332;2023-05-10T14:18:16;19.10;99.90
25582;DHT22;13462;50.764;4.332;2023-05-10T14:20:42;19.20;99.90
25582;DHT22;13462;50.764;4.332;2023-05-10T14:23:07;19.20;99.90
25582;DHT22;13462;50.764;4.332;2023-05-10T14:25:33;19.00;99.90
25582;DHT22;13462;50.764;4.332;2023-05-10T14:27:59;18.80;99.90
25582;DHT22;13462;50.764;4.332;2023-05-10T14:30:25;18.70;99.90
25582;DHT22;13462;50.764;4.332;2023-05-10T14:32:51;18.60;99.90
25582;DHT22;13462;50.764;4.332;2023-05-10T14:35:17;18.40;99.90
25582;DHT22;13462;50.764;4.332;2023-05-10T14:37:43;18.40;99.90
25582;DHT22;13462;50.764;4.332;2023-05-10T14:40:09;18.20;99.90
25582;DHT22;13462;50.764;4.332;2023-05-10T14:42:34;18.20;99.90
25582;DHT22;13462;50.764;4.332;2023-05-10T14:45:00;17.80;99.90
25582;DHT22;13462;50.764;4.332;2023-05-10T14:47:25;17.70;99.90
25582;DHT22;13462;50.764;4.332;2023-05-10T14:49:51;17.60;99.90
25582;DHT22;13462;50.764;4.332;2023-05-10T14:52:17;17.40;99.90
25582;DHT22;13462;50.764;4.332;2023-05-10T14:54:42;17.00;99.90
25582;DHT22;13462;50.764;4.332;2023-05-10T14:57:08;16.70;99.90
25582;DHT22;13462;50.764;4.332;2023-05-10T14:59:33;16.40;99.90
25582;DHT22;13462;50.764;4.332;2023-05-10T15:01:59;16.40;99.90
25582;DHT22;13462;50.764;4.332;2023-05-10T15:04:24;16.40;99.90
25582;DHT22;13462;50.764;4.332;2023-05-10T15:06:50;16.30;99.90
25582;DHT22;13462;50.764;4.332;2023-05-10T15:09:15;16.30;99.90
25582;DHT22;13462;50.764;4.332;2023-05-10T15:11:41;16.40;99.90
25582;DHT22;13462;50.764;4.332;2023-05-10T15:14:07;16.50;99.90
25582;DHT22;13462;50.764;4.332;2023-05-10T15:16:32;16.50;99.90
25582;DHT22;13462;50.764;4.332;2023-05-10T15:18:58;16.40;99.90
25582;DHT22;13462;50.764;4.332;2023-05-10T15:21:23;15.90;99.90
25582;DHT22;13462;50.764;4.332;2023-05-10T15:23:49;15.50;99.90
25582;DHT22;13462;50.764;4.332;2023-05-10T15:26:15;15.40;99.90
25582;DHT22;13462;50.764;4.332;2023-05-10T15:28:40;15.30;99.90
25582;DHT22;13462;50.764;4.332;2023-05-10T15:31:06;15.50;99.90
25582;DHT22;13462;50.764;4.332;2023-05-10T15:33:31;15.60;99.90
25582;DHT22;13462;50.764;4.332;2023-05-10T15:35:57;15.80;99.90
25582;DHT22;13462;50.764;4.332;2023-05-10T15:38:23;16.10;99.90
25582;DHT22;13462;50.764;4.332;2023-05-10T15:40:48;16.20;99.90
25582;DHT22;13462;50.764;4.332;2023-05-10T15:43:14;16.30;99.90
25582;DHT22;13462;50.764;4.332;2023-05-10T15:45:40;16.40;99.90
25582;DHT22;13462;50.764;4.332;2023-05-10T15:48:05;16.50;99.90
25582;DHT22;13462;50.764;4.332;2023-05-10T15:50:31;16.60;99.90
25582;DHT22;13462;50.764;4.332;2023-05-10T15:52:57;16.60;99.90
25582;DHT22;13462;50.764;4.332;2023-05-10T15:55:22;16.60;99.90
25582;DHT22;13462;50.764;4.332;2023-05-10T15:57:48;16.50;99.90
25582;DHT22;13462;50.764;4.332;2023-05-10T16:00:14;16.50;99.90